sensor_id;sensor_type;location;lat;lon;timestamp;temperature;humidity
76293;DHT22;67256;51.154;4.164;2023-01-26T00:00:48;22.70;41.60
76293;DHT22;67256;51.154;4.164;2023-01-26T00:03:15;22.70;41.60
76293;DHT22;67256;51.154;4.164;2023-01-26T00:05:41;22.70;41.50
76293;DHT22;67256;51.154;4.164;2023-01-26T00:08:07;22.70;41.60
76293;DHT22;67256;51.154;4.164;2023-01-26T00:10:37;22.60;41.50
76293;DHT22;67256;51.154;4.164;2023-01-26T00:13:03;22.60;41.60
76293;DHT22;67256;51.154;4.164;2023-01-26T00:15:31;22.60;41.50
76293;DHT22;67256;51.154;4.164;2023-01-26T00:17:58;22.60;41.60
76293;DHT22;67256;51.154;4.164;2023-01-26T00:20:24;22.60;41.50
76293;DHT22;67256;51.154;4.164;2023-01-26T00:22:50;22.60;41.70
76293;DHT22;67256;51.154;4.164;2023-01-26T00:25:16;22.50;41.70
76293;DHT22;67256;51.154;4.164;2023-01-26T00:27:41;22.50;41.60
76293;DHT22;67256;51.154;4.164;2023-01-26T00:30:07;22.50;41.70
76293;DHT22;67256;51.154;4.164;2023-01-26T00:32:34;22.50;41.60
76293;DHT22;67256;51.154;4.164;2023-01-26T00:35:01;22.50;41.60
76293;DHT22;67256;51.154;4.164;2023-01-26T00:37:26;22.40;41.60
76293;DHT22;67256;51.154;4.164;2023-01-26T00:39:52;22.40;41.70
76293;DHT22;67256;51.154;4.164;2023-01-26T00:42:18;22.40;41.60
76293;DHT22;67256;51.154;4.164;2023-01-26T00:44:45;22.40;41.80
76293;DHT22;67256;51.154;4.164;2023-01-26T00:47:11;22.30;41.80
76293;DHT22;67256;51.154;4.164;2023-01-26T00:49:37;22.30;41.70
76293;DHT22;67256;51.154;4.164;2023-01-26T00:52:04;22.30;41.70
76293;DHT22;67256;51.154;4.164;2023-01-26T00:54:30;22.30;41.80
76293;DHT22;67256;51.154;4.164;2023-01-26T00:56:56;22.30;41.80
76293;DHT22;67256;51.154;4.164;2023-01-26T00:59:22;22.30;41.80
76293;DHT22;67256;51.154;4.164;2023-01-26T01:01:48;22.30;41.80
76293;DHT22;67256;51.154;4.164;2023-01-26T01:04:14;22.30;41.90
76293;DHT22;67256;51.154;4.164;2023-01-26T01:06:41;22.30;41.90
76293;DHT22;67256;51.154;4.164;2023-01-26T01:09:06;22.20;42.00
76293;DHT22;67256;51.154;4.164;2023-01-26T01:11:32;22.20;42.00
76293;DHT22;67256;51.154;4.164;2023-01-26T01:13:58;22.20;42.00
76293;DHT22;67256;51.154;4.164;2023-01-26T01:16:24;22.20;42.00
76293;DHT22;67256;51.154;4.164;2023-01-26T01:18:54;22.20;42.00
76293;DHT22;67256;51.154;4.164;2023-01-26T01:21:21;22.20;42.10
76293;DHT22;67256;51.154;4.164;2023-01-26T01:23:48;22.10;42.00
76293;DHT22;67256;51.154;4.164;2023-01-26T01:26:15;22.10;42.00
76293;DHT22;67256;51.154;4.164;2023-01-26T01:28:42;22.10;42.00
76293;DHT22;67256;51.154;4.164;2023-01-26T01:31:11;22.10;42.00
76293;DHT22;67256;51.154;4.164;2023-01-26T01:33:37;22.10;42.20
76293;DHT22;67256;51.154;4.164;2023-01-26T01:36:06;22.10;42.10
76293;DHT22;67256;51.154;4.164;2023-01-26T01:38:32;22.00;42.00
76293;DHT22;67256;51.154;4.164;2023-01-26T01:40:58;22.00;42.10
76293;DHT22;67256;51.154;4.164;2023-01-26T01:43:25;22.00;42.10
76293;DHT22;67256;51.154;4.164;2023-01-26T01:45:52;22.00;42.10
76293;DHT22;67256;51.154;4.164;2023-01-26T01:48:28;22.00;42.20
76293;DHT22;67256;51.154;4.164;2023-01-26T01:50:59;22.00;42.20
76293;DHT22;67256;51.154;4.164;2023-01-26T01:53:34;21.90;42.10
76293;DHT22;67256;51.154;4.164;2023-01-26T01:56:05;21.90;42.20
76293;DHT22;67256;51.154;4.164;2023-01-26T01:58:33;21.90;42.20
76293;DHT22;67256;51.154;4.164;2023-01-26T02:01:00;21.90;42.20
76293;DHT22;67256;51.154;4.164;2023-01-26T02:03:27;21.90;42.30
76293;DHT22;67256;51.154;4.164;2023-01-26T02:06:02;21.90;42.20
76293;DHT22;67256;51.154;4.164;2023-01-26T02:11:05;21.90;42.30
76293;DHT22;67256;51.154;4.164;2023-01-26T02:13:32;21.80;42.20
76293;DHT22;67256;51.154;4.164;2023-01-26T02:16:00;21.90;42.30
76293;DHT22;67256;51.154;4.164;2023-01-26T02:18:26;21.90;42.30
76293;DHT22;67256;51.154;4.164;2023-01-26T02:20:56;21.80;42.30
76293;DHT22;67256;51.154;4.164;2023-01-26T02:26:12;21.80;42.30
76293;DHT22;67256;51.154;4.164;2023-01-26T02:28:39;21.80;42.40
76293;DHT22;67256;51.154;4.164;2023-01-26T02:31:06;21.70;42.30
76293;DHT22;67256;51.154;4.164;2023-01-26T02:33:32;21.70;42.40
76293;DHT22;67256;51.154;4.164;2023-01-26T02:35:58;21.70;42.30
76293;DHT22;67256;51.154;4.164;2023-01-26T02:38:30;21.70;42.40
76293;DHT22;67256;51.154;4.164;2023-01-26T02:41:05;21.70;42.30
76293;DHT22;67256;51.154;4.164;2023-01-26T02:43:32;21.70;42.40
76293;DHT22;67256;51.154;4.164;2023-01-26T02:45:58;21.70;42.40
76293;DHT22;67256;51.154;4.164;2023-01-26T02:48:24;21.70;42.40
76293;DHT22;67256;51.154;4.164;2023-01-26T02:51:09;21.70;42.40
76293;DHT22;67256;51.154;4.164;2023-01-26T02:53:35;21.70;42.40
76293;DHT22;67256;51.154;4.164;2023-01-26T02:56:00;21.60;42.40
76293;DHT22;67256;51.154;4.164;2023-01-26T02:58:26;21.60;42.40
76293;DHT22;67256;51.154;4.164;2023-01-26T03:00:52;21.60;42.40
76293;DHT22;67256;51.154;4.164;2023-01-26T03:03:23;21.60;42.50
76293;DHT22;67256;51.154;4.164;2023-01-26T03:05:49;21.60;42.50
76293;DHT22;67256;51.154;4.164;2023-01-26T03:08:15;21.60;42.50
76293;DHT22;67256;51.154;4.164;2023-01-26T03:10:42;21.60;42.50
76293;DHT22;67256;51.154;4.164;2023-01-26T03:13:08;21.50;42.50
76293;DHT22;67256;51.154;4.164;2023-01-26T03:15:34;21.50;42.50
76293;DHT22;67256;51.154;4.164;2023-01-26T03:18:10;21.50;42.60
76293;DHT22;67256;51.154;4.164;2023-01-26T03:20:54;21.50;42.60
76293;DHT22;67256;51.154;4.164;2023-01-26T03:23:39;21.50;42.60
76293;DHT22;67256;51.154;4.164;2023-01-26T03:26:23;21.50;42.60
76293;DHT22;67256;51.154;4.164;2023-01-26T03:29:07;21.50;42.70
76293;DHT22;67256;51.154;4.164;2023-01-26T03:31:34;21.50;42.60
76293;DHT22;67256;51.154;4.164;2023-01-26T03:34:00;21.40;42.60
76293;DHT22;67256;51.154;4.164;2023-01-26T03:36:26;21.40;42.60
76293;DHT22;67256;51.154;4.164;2023-01-26T03:38:51;21.40;42.60
76293;DHT22;67256;51.154;4.164;2023-01-26T03:41:17;21.40;42.60
76293;DHT22;67256;51.154;4.164;2023-01-26T03:44:01;21.40;42.70
76293;DHT22;67256;51.154;4.164;2023-01-26T03:46:45;21.40;42.70
76293;DHT22;67256;51.154;4.164;2023-01-26T03:49:29;21.40;42.60
76293;DHT22;67256;51.154;4.164;2023-01-26T03:52:14;21.40;42.70
76293;DHT22;67256;51.154;4.164;2023-01-26T03:54:58;21.40;42.70
76293;DHT22;67256;51.154;4.164;2023-01-26T03:57:42;21.30;42.60
76293;DHT22;67256;51.154;4.164;2023-01-26T04:00:08;21.30;42.70
76293;DHT22;67256;51.154;4.164;2023-01-26T04:02:34;21.30;42.70
76293;DHT22;67256;51.154;4.164;2023-01-26T04:05:18;21.30;42.70
76293;DHT22;67256;51.154;4.164;2023-01-26T04:08:03;21.30;42.70
76293;DHT22;67256;51.154;4.164;2023-01-26T04:10:53;21.30;42.70
76293;DHT22;67256;51.154;4.164;2023-01-26T04:13:21;21.30;42.70
76293;DHT22;67256;51.154;4.164;2023-01-26T04:16:07;21.30;42.70
76293;DHT22;67256;51.154;4.164;2023-01-26T04:18:52;21.20;42.60
76293;DHT22;67256;51.154;4.164;2023-01-26T04:21:36;21.20;42.70
76293;DHT22;67256;51.154;4.164;2023-01-26T04:24:04;21.20;42.80
76293;DHT22;67256;51.154;4.164;2023-01-26T04:26:42;21.20;42.80
76293;DHT22;67256;51.154;4.164;2023-01-26T04:29:11;21.20;42.80
76293;DHT22;67256;51.154;4.164;2023-01-26T04:31:37;21.20;42.80
76293;DHT22;67256;51.154;4.164;2023-01-26T04:34:05;21.20;42.80
76293;DHT22;67256;51.154;4.164;2023-01-26T04:36:32;21.20;42.80
76293;DHT22;67256;51.154;4.164;2023-01-26T04:38:59;21.20;42.80
76293;DHT22;67256;51.154;4.164;2023-01-26T04:41:24;21.20;42.80
76293;DHT22;67256;51.154;4.164;2023-01-26T04:43:50;21.10;42.80
76293;DHT22;67256;51.154;4.164;2023-01-26T04:46:16;21.10;42.80
76293;DHT22;67256;51.154;4.164;2023-01-26T04:48:41;21.10;43.30
76293;DHT22;67256;51.154;4.164;2023-01-26T04:51:14;21.10;42.70
76293;DHT22;67256;51.154;4.164;2023-01-26T04:53:40;21.10;42.80
76293;DHT22;67256;51.154;4.164;2023-01-26T04:56:06;21.10;43.40
76293;DHT22;67256;51.154;4.164;2023-01-26T04:58:33;21.10;42.80
76293;DHT22;67256;51.154;4.164;2023-01-26T05:00:59;21.00;42.80
76293;DHT22;67256;51.154;4.164;2023-01-26T05:03:25;21.10;42.90
76293;DHT22;67256;51.154;4.164;2023-01-26T05:05:53;21.00;42.80
76293;DHT22;67256;51.154;4.164;2023-01-26T05:08:20;21.00;42.80
76293;DHT22;67256;51.154;4.164;2023-01-26T05:10:46;21.00;42.90
76293;DHT22;67256;51.154;4.164;2023-01-26T05:13:13;21.00;42.90
76293;DHT22;67256;51.154;4.164;2023-01-26T05:15:39;21.00;42.90
76293;DHT22;67256;51.154;4.164;2023-01-26T05:18:05;21.00;42.90
76293;DHT22;67256;51.154;4.164;2023-01-26T05:20:32;21.00;43.00
76293;DHT22;67256;51.154;4.164;2023-01-26T05:22:58;21.00;42.90
76293;DHT22;67256;51.154;4.164;2023-01-26T05:25:24;21.00;42.90
76293;DHT22;67256;51.154;4.164;2023-01-26T05:27:50;21.00;42.90
76293;DHT22;67256;51.154;4.164;2023-01-26T05:30:17;21.00;42.90
76293;DHT22;67256;51.154;4.164;2023-01-26T05:32:43;20.90;42.90
76293;DHT22;67256;51.154;4.164;2023-01-26T05:35:09;20.90;42.90
76293;DHT22;67256;51.154;4.164;2023-01-26T05:37:36;20.90;43.00
76293;DHT22;67256;51.154;4.164;2023-01-26T05:40:02;20.90;43.00
76293;DHT22;67256;51.154;4.164;2023-01-26T05:42:28;20.90;43.00
76293;DHT22;67256;51.154;4.164;2023-01-26T05:44:54;20.90;43.00
76293;DHT22;67256;51.154;4.164;2023-01-26T05:47:20;20.90;42.90
76293;DHT22;67256;51.154;4.164;2023-01-26T05:49:45;20.80;42.90
76293;DHT22;67256;51.154;4.164;2023-01-26T05:52:16;20.80;42.90
76293;DHT22;67256;51.154;4.164;2023-01-26T05:54:41;20.80;43.00
76293;DHT22;67256;51.154;4.164;2023-01-26T05:57:08;20.80;43.00
76293;DHT22;67256;51.154;4.164;2023-01-26T05:59:34;20.80;43.00
76293;DHT22;67256;51.154;4.164;2023-01-26T06:02:00;20.80;43.00
76293;DHT22;67256;51.154;4.164;2023-01-26T06:04:26;20.80;43.00
76293;DHT22;67256;51.154;4.164;2023-01-26T06:06:53;20.80;43.00
76293;DHT22;67256;51.154;4.164;2023-01-26T06:09:19;20.80;43.00
76293;DHT22;67256;51.154;4.164;2023-01-26T06:11:46;20.80;42.90
76293;DHT22;67256;51.154;4.164;2023-01-26T06:14:12;20.80;43.00
76293;DHT22;67256;51.154;4.164;2023-01-26T06:16:37;20.80;43.00
76293;DHT22;67256;51.154;4.164;2023-01-26T06:19:03;20.80;43.00
76293;DHT22;67256;51.154;4.164;2023-01-26T06:21:33;20.70;42.90
76293;DHT22;67256;51.154;4.164;2023-01-26T06:23:58;20.70;43.50
76293;DHT22;67256;51.154;4.164;2023-01-26T06:26:24;20.70;43.00
76293;DHT22;67256;51.154;4.164;2023-01-26T06:28:51;20.70;43.00
76293;DHT22;67256;51.154;4.164;2023-01-26T06:31:18;20.70;43.00
76293;DHT22;67256;51.154;4.164;2023-01-26T06:33:44;20.70;43.00
76293;DHT22;67256;51.154;4.164;2023-01-26T06:36:13;20.70;43.00
76293;DHT22;67256;51.154;4.164;2023-01-26T06:38:44;20.70;43.10
76293;DHT22;67256;51.154;4.164;2023-01-26T06:41:10;20.70;43.00
76293;DHT22;67256;51.154;4.164;2023-01-26T06:43:36;20.70;43.00
76293;DHT22;67256;51.154;4.164;2023-01-26T06:46:04;20.70;43.00
76293;DHT22;67256;51.154;4.164;2023-01-26T06:48:32;20.80;42.90
76293;DHT22;67256;51.154;4.164;2023-01-26T06:53:55;20.90;42.70
76293;DHT22;67256;51.154;4.164;2023-01-26T06:56:22;20.90;42.70
76293;DHT22;67256;51.154;4.164;2023-01-26T06:58:48;21.00;42.80
76293;DHT22;67256;51.154;4.164;2023-01-26T07:01:17;21.00;42.70
76293;DHT22;67256;51.154;4.164;2023-01-26T07:03:43;21.00;42.70
76293;DHT22;67256;51.154;4.164;2023-01-26T07:06:09;21.00;42.60
76293;DHT22;67256;51.154;4.164;2023-01-26T07:08:38;21.10;42.70
76293;DHT22;67256;51.154;4.164;2023-01-26T07:11:04;21.10;42.60
76293;DHT22;67256;51.154;4.164;2023-01-26T07:13:30;21.20;42.70
76293;DHT22;67256;51.154;4.164;2023-01-26T07:16:04;21.20;42.70
76293;DHT22;67256;51.154;4.164;2023-01-26T07:18:30;21.30;42.60
76293;DHT22;67256;51.154;4.164;2023-01-26T07:21:02;21.30;42.60
76293;DHT22;67256;51.154;4.164;2023-01-26T07:23:28;21.30;42.60
76293;DHT22;67256;51.154;4.164;2023-01-26T07:25:54;21.40;42.50
76293;DHT22;67256;51.154;4.164;2023-01-26T07:28:20;21.40;42.50
76293;DHT22;67256;51.154;4.164;2023-01-26T07:30:47;21.50;42.50
76293;DHT22;67256;51.154;4.164;2023-01-26T07:33:13;21.50;42.40
76293;DHT22;67256;51.154;4.164;2023-01-26T07:35:39;21.50;42.30
76293;DHT22;67256;51.154;4.164;2023-01-26T07:38:05;21.60;42.30
76293;DHT22;67256;51.154;4.164;2023-01-26T07:40:32;21.60;42.80
76293;DHT22;67256;51.154;4.164;2023-01-26T07:42:59;21.70;42.20
76293;DHT22;67256;51.154;4.164;2023-01-26T07:45:25;21.70;42.20
76293;DHT22;67256;51.154;4.164;2023-01-26T07:47:54;21.70;42.10
76293;DHT22;67256;51.154;4.164;2023-01-26T07:50:19;21.80;42.10
76293;DHT22;67256;51.154;4.164;2023-01-26T07:52:47;21.80;42.10
76293;DHT22;67256;51.154;4.164;2023-01-26T07:55:13;21.90;42.10
76293;DHT22;67256;51.154;4.164;2023-01-26T07:57:39;21.90;42.00
76293;DHT22;67256;51.154;4.164;2023-01-26T08:00:05;21.90;42.00
76293;DHT22;67256;51.154;4.164;2023-01-26T08:02:31;21.90;41.90
76293;DHT22;67256;51.154;4.164;2023-01-26T08:04:57;22.00;41.80
76293;DHT22;67256;51.154;4.164;2023-01-26T08:07:24;22.00;41.90
76293;DHT22;67256;51.154;4.164;2023-01-26T08:09:50;22.00;41.80
76293;DHT22;67256;51.154;4.164;2023-01-26T08:12:17;22.10;41.80
76293;DHT22;67256;51.154;4.164;2023-01-26T08:14:43;22.10;41.70
76293;DHT22;67256;51.154;4.164;2023-01-26T08:17:08;22.10;41.70
76293;DHT22;67256;51.154;4.164;2023-01-26T08:19:34;22.20;41.80
76293;DHT22;67256;51.154;4.164;2023-01-26T08:22:00;22.20;41.60
76293;DHT22;67256;51.154;4.164;2023-01-26T08:24:26;22.20;41.60
76293;DHT22;67256;51.154;4.164;2023-01-26T08:28:31;22.30;40.70
76293;DHT22;67256;51.154;4.164;2023-01-26T08:31:03;22.40;41.70
76293;DHT22;67256;51.154;4.164;2023-01-26T08:33:30;22.40;41.60
76293;DHT22;67256;51.154;4.164;2023-01-26T08:36:04;22.50;41.30
76293;DHT22;67256;51.154;4.164;2023-01-26T08:38:31;22.50;41.70
76293;DHT22;67256;51.154;4.164;2023-01-26T08:40:58;22.60;41.70
76293;DHT22;67256;51.154;4.164;2023-01-26T08:43:24;22.60;41.60
76293;DHT22;67256;51.154;4.164;2023-01-26T08:45:50;22.60;41.60
76293;DHT22;67256;51.154;4.164;2023-01-26T08:48:16;22.70;41.60
76293;DHT22;67256;51.154;4.164;2023-01-26T08:50:46;22.70;41.60
76293;DHT22;67256;51.154;4.164;2023-01-26T08:53:13;22.70;41.60
76293;DHT22;67256;51.154;4.164;2023-01-26T08:55:39;22.70;41.50
76293;DHT22;67256;51.154;4.164;2023-01-26T08:58:04;22.70;42.10
76293;DHT22;67256;51.154;4.164;2023-01-26T09:00:30;22.70;41.50
76293;DHT22;67256;51.154;4.164;2023-01-26T09:03:00;22.70;41.50
76293;DHT22;67256;51.154;4.164;2023-01-26T09:05:27;22.70;41.60
76293;DHT22;67256;51.154;4.164;2023-01-26T09:07:55;22.70;41.60
76293;DHT22;67256;51.154;4.164;2023-01-26T09:10:21;22.70;41.60
76293;DHT22;67256;51.154;4.164;2023-01-26T09:12:47;22.70;41.70
76293;DHT22;67256;51.154;4.164;2023-01-26T09:15:13;22.70;42.00
76293;DHT22;67256;51.154;4.164;2023-01-26T09:17:39;22.80;42.20
76293;DHT22;67256;51.154;4.164;2023-01-26T09:20:08;22.80;42.20
76293;DHT22;67256;51.154;4.164;2023-01-26T09:22:34;22.90;42.50
76293;DHT22;67256;51.154;4.164;2023-01-26T09:25:00;22.90;42.60
76293;DHT22;67256;51.154;4.164;2023-01-26T09:27:26;22.90;42.80
76293;DHT22;67256;51.154;4.164;2023-01-26T09:29:52;23.00;42.90
76293;DHT22;67256;51.154;4.164;2023-01-26T09:32:19;23.00;43.40
76293;DHT22;67256;51.154;4.164;2023-01-26T09:34:45;23.00;43.00
76293;DHT22;67256;51.154;4.164;2023-01-26T09:37:10;23.00;42.90
76293;DHT22;67256;51.154;4.164;2023-01-26T09:39:36;23.00;43.00
76293;DHT22;67256;51.154;4.164;2023-01-26T09:42:25;23.00;42.90
76293;DHT22;67256;51.154;4.164;2023-01-26T09:45:07;23.00;42.80
76293;DHT22;67256;51.154;4.164;2023-01-26T09:47:58;23.00;42.70
76293;DHT22;67256;51.154;4.164;2023-01-26T09:50:42;23.00;42.60
76293;DHT22;67256;51.154;4.164;2023-01-26T09:53:17;23.00;42.60
76293;DHT22;67256;51.154;4.164;2023-01-26T09:55:45;23.10;42.60
76293;DHT22;67256;51.154;4.164;2023-01-26T09:58:27;23.10;42.60
76293;DHT22;67256;51.154;4.164;2023-01-26T10:00:59;23.10;42.50
76293;DHT22;67256;51.154;4.164;2023-01-26T10:03:40;23.10;42.40
76293;DHT22;67256;51.154;4.164;2023-01-26T10:06:33;23.20;42.40
76293;DHT22;67256;51.154;4.164;2023-01-26T10:09:20;23.20;42.40
76293;DHT22;67256;51.154;4.164;2023-01-26T10:11:50;23.20;42.40
76293;DHT22;67256;51.154;4.164;2023-01-26T10:16:46;23.30;42.20
76293;DHT22;67256;51.154;4.164;2023-01-26T10:19:30;23.30;42.10
76293;DHT22;67256;51.154;4.164;2023-01-26T10:22:02;23.30;42.10
76293;DHT22;67256;51.154;4.164;2023-01-26T10:24:31;23.40;42.10
76293;DHT22;67256;51.154;4.164;2023-01-26T10:26:58;23.40;42.10
76293;DHT22;67256;51.154;4.164;2023-01-26T10:29:24;23.50;42.00
76293;DHT22;67256;51.154;4.164;2023-01-26T10:31:50;23.50;42.00
76293;DHT22;67256;51.154;4.164;2023-01-26T10:34:24;23.50;42.00
76293;DHT22;67256;51.154;4.164;2023-01-26T10:36:55;23.50;42.00
76293;DHT22;67256;51.154;4.164;2023-01-26T10:39:24;23.60;42.10
76293;DHT22;67256;51.154;4.164;2023-01-26T10:41:59;23.70;42.30
76293;DHT22;67256;51.154;4.164;2023-01-26T10:44:33;23.70;42.30
76293;DHT22;67256;51.154;4.164;2023-01-26T10:47:15;23.70;42.30
76293;DHT22;67256;51.154;4.164;2023-01-26T10:49:42;23.80;42.30
76293;DHT22;67256;51.154;4.164;2023-01-26T10:52:22;23.80;42.40
76293;DHT22;67256;51.154;4.164;2023-01-26T10:55:08;23.80;42.30
76293;DHT22;67256;51.154;4.164;2023-01-26T10:57:37;23.80;42.30
76293;DHT22;67256;51.154;4.164;2023-01-26T11:03:04;23.90;42.50
76293;DHT22;67256;51.154;4.164;2023-01-26T11:05:30;23.90;42.40
76293;DHT22;67256;51.154;4.164;2023-01-26T11:07:56;23.90;42.60
76293;DHT22;67256;51.154;4.164;2023-01-26T11:13:12;23.90;42.60
76293;DHT22;67256;51.154;4.164;2023-01-26T11:15:42;23.90;42.50
76293;DHT22;67256;51.154;4.164;2023-01-26T11:18:30;23.90;42.40
76293;DHT22;67256;51.154;4.164;2023-01-26T11:23:45;24.00;42.60
76293;DHT22;67256;51.154;4.164;2023-01-26T11:45:35;21.00;42.90
76293;DHT22;67256;51.154;4.164;2023-01-26T11:50:53;20.80;43.40
76293;DHT22;67256;51.154;4.164;2023-01-26T11:53:48;20.70;43.40
76293;DHT22;67256;51.154;4.164;2023-01-26T11:59:17;20.70;43.70
76293;DHT22;67256;51.154;4.164;2023-01-26T12:01:50;20.70;43.80
76293;DHT22;67256;51.154;4.164;2023-01-26T12:04:20;20.80;40.40
76293;DHT22;67256;51.154;4.164;2023-01-26T12:06:56;21.10;40.60
76293;DHT22;67256;51.154;4.164;2023-01-26T12:09:36;21.30;40.60
76293;DHT22;67256;51.154;4.164;2023-01-26T12:12:16;21.50;40.60
76293;DHT22;67256;51.154;4.164;2023-01-26T12:25:36;21.20;41.90
76293;DHT22;67256;51.154;4.164;2023-01-26T12:33:38;20.90;42.80
76293;DHT22;67256;51.154;4.164;2023-01-26T12:47:02;20.70;42.90
76293;DHT22;67256;51.154;4.164;2023-01-26T12:52:47;20.70;42.70
76293;DHT22;67256;51.154;4.164;2023-01-26T12:55:26;20.70;42.50
76293;DHT22;67256;51.154;4.164;2023-01-26T12:58:04;20.70;42.60
76293;DHT22;67256;51.154;4.164;2023-01-26T13:00:34;20.70;42.30
76293;DHT22;67256;51.154;4.164;2023-01-26T13:03:15;20.80;42.60
76293;DHT22;67256;51.154;4.164;2023-01-26T13:14:37;20.70;43.30
76293;DHT22;67256;51.154;4.164;2023-01-26T13:19:52;20.70;43.40
76293;DHT22;67256;51.154;4.164;2023-01-26T13:24:48;20.70;43.10
76293;DHT22;67256;51.154;4.164;2023-01-26T13:27:35;20.70;43.20
76293;DHT22;67256;51.154;4.164;2023-01-26T13:35:34;20.80;43.30
76293;DHT22;67256;51.154;4.164;2023-01-26T13:38:18;20.80;43.10
76293;DHT22;67256;51.154;4.164;2023-01-26T13:40:47;20.80;43.40
76293;DHT22;67256;51.154;4.164;2023-01-26T13:43:31;20.80;43.40
76293;DHT22;67256;51.154;4.164;2023-01-26T13:48:47;20.80;43.50
76293;DHT22;67256;51.154;4.164;2023-01-26T13:51:16;20.90;42.70
76293;DHT22;67256;51.154;4.164;2023-01-26T13:53:57;20.90;43.50
76293;DHT22;67256;51.154;4.164;2023-01-26T13:56:34;20.90;43.60
76293;DHT22;67256;51.154;4.164;2023-01-26T14:01:31;20.90;43.90
76293;DHT22;67256;51.154;4.164;2023-01-26T14:04:04;20.90;44.00
76293;DHT22;67256;51.154;4.164;2023-01-26T14:06:31;20.80;44.10
76293;DHT22;67256;51.154;4.164;2023-01-26T14:08:57;20.80;44.10
76293;DHT22;67256;51.154;4.164;2023-01-26T14:11:27;20.80;44.20
76293;DHT22;67256;51.154;4.164;2023-01-26T14:16:34;20.80;44.40
76293;DHT22;67256;51.154;4.164;2023-01-26T14:21:29;20.80;44.40
76293;DHT22;67256;51.154;4.164;2023-01-26T14:23:57;20.80;44.40
76293;DHT22;67256;51.154;4.164;2023-01-26T14:26:30;20.80;44.40
76293;DHT22;67256;51.154;4.164;2023-01-26T14:29:01;20.80;44.50
76293;DHT22;67256;51.154;4.164;2023-01-26T14:31:28;20.90;44.50
76293;DHT22;67256;51.154;4.164;2023-01-26T14:33:57;20.90;44.60
76293;DHT22;67256;51.154;4.164;2023-01-26T14:36:26;20.90;44.70
76293;DHT22;67256;51.154;4.164;2023-01-26T14:38:54;20.90;44.60
76293;DHT22;67256;51.154;4.164;2023-01-26T14:41:31;20.90;44.60
76293;DHT22;67256;51.154;4.164;2023-01-26T14:43:59;20.90;44.60
76293;DHT22;67256;51.154;4.164;2023-01-26T14:52:29;20.90;45.00
76293;DHT22;67256;51.154;4.164;2023-01-26T14:55:06;20.80;44.70
76293;DHT22;67256;51.154;4.164;2023-01-26T14:57:33;20.80;45.20
76293;DHT22;67256;51.154;4.164;2023-01-26T15:00:00;20.80;45.20
76293;DHT22;67256;51.154;4.164;2023-01-26T15:02:38;20.80;45.20
76293;DHT22;67256;51.154;4.164;2023-01-26T15:05:21;20.80;45.10
76293;DHT22;67256;51.154;4.164;2023-01-26T15:07:53;20.80;44.90
76293;DHT22;67256;51.154;4.164;2023-01-26T15:10:39;20.80;44.90
76293;DHT22;67256;51.154;4.164;2023-01-26T15:15:45;21.00;42.60
76293;DHT22;67256;51.154;4.164;2023-01-26T15:20:41;21.10;43.20
76293;DHT22;67256;51.154;4.164;2023-01-26T15:23:36;21.10;43.10
76293;DHT22;67256;51.154;4.164;2023-01-26T15:26:13;21.20;43.00
76293;DHT22;67256;51.154;4.164;2023-01-26T15:28:39;21.20;43.60
76293;DHT22;67256;51.154;4.164;2023-01-26T15:31:06;21.20;43.40
76293;DHT22;67256;51.154;4.164;2023-01-26T15:33:44;21.20;43.30
76293;DHT22;67256;51.154;4.164;2023-01-26T15:39:20;21.30;42.80
76293;DHT22;67256;51.154;4.164;2023-01-26T15:42:00;21.20;44.70
76293;DHT22;67256;51.154;4.164;2023-01-26T16:19:22;7.90;76.30
76293;DHT22;67256;51.154;4.164;2023-01-26T16:21:51;7.80;76.60
76293;DHT22;67256;51.154;4.164;2023-01-26T16:29:26;8.70;70.30
76293;DHT22;67256;51.154;4.164;2023-01-26T16:34:27;10.20;72.70
76293;DHT22;67256;51.154;4.164;2023-01-26T16:36:53;13.00;57.80
76293;DHT22;67256;51.154;4.164;2023-01-26T16:39:20;14.40;53.30
76293;DHT22;67256;51.154;4.164;2023-01-26T16:41:46;15.30;50.70
76293;DHT22;67256;51.154;4.164;2023-01-26T16:44:14;14.90;48.80
76293;DHT22;67256;51.154;4.164;2023-01-26T16:46:42;14.10;51.80
76293;DHT22;67256;51.154;4.164;2023-01-26T16:49:18;14.60;50.90
76293;DHT22;67256;51.154;4.164;2023-01-26T16:51:43;15.00;49.50
76293;DHT22;67256;51.154;4.164;2023-01-26T16:54:10;15.30;48.90
76293;DHT22;67256;51.154;4.164;2023-01-26T16:56:36;15.50;48.40
76293;DHT22;67256;51.154;4.164;2023-01-26T16:59:02;15.70;48.00
76293;DHT22;67256;51.154;4.164;2023-01-26T17:01:31;15.80;47.70
76293;DHT22;67256;51.154;4.164;2023-01-26T17:03:57;15.90;47.60
76293;DHT22;67256;51.154;4.164;2023-01-26T17:06:23;16.00;47.30
76293;DHT22;67256;51.154;4.164;2023-01-26T17:08:49;16.10;47.40
76293;DHT22;67256;51.154;4.164;2023-01-26T17:11:26;16.10;47.20
76293;DHT22;67256;51.154;4.164;2023-01-26T17:13:52;16.10;47.00
76293;DHT22;67256;51.154;4.164;2023-01-26T17:16:24;16.20;47.40
76293;DHT22;67256;51.154;4.164;2023-01-26T17:18:50;16.30;47.10
76293;DHT22;67256;51.154;4.164;2023-01-26T17:21:18;16.30;47.20
76293;DHT22;67256;51.154;4.164;2023-01-26T17:23:48;16.30;47.20
76293;DHT22;67256;51.154;4.164;2023-01-26T17:26:15;16.30;47.10
76293;DHT22;67256;51.154;4.164;2023-01-26T17:28:45;16.40;47.00
76293;DHT22;67256;51.154;4.164;2023-01-26T17:31:13;16.50;46.80
76293;DHT22;67256;51.154;4.164;2023-01-26T17:33:43;16.50;46.70
76293;DHT22;67256;51.154;4.164;2023-01-26T17:36:10;16.60;46.50
76293;DHT22;67256;51.154;4.164;2023-01-26T17:38:36;16.60;46.50
76293;DHT22;67256;51.154;4.164;2023-01-26T17:41:02;16.60;46.40
76293;DHT22;67256;51.154;4.164;2023-01-26T17:43:28;16.60;46.10
76293;DHT22;67256;51.154;4.164;2023-01-26T17:46:10;16.60;46.10
76293;DHT22;67256;51.154;4.164;2023-01-26T17:48:37;16.60;46.10
76293;DHT22;67256;51.154;4.164;2023-01-26T17:51:11;16.60;46.10
76293;DHT22;67256;51.154;4.164;2023-01-26T17:53:38;16.60;46.00
76293;DHT22;67256;51.154;4.164;2023-01-26T17:56:06;16.70;45.80
76293;DHT22;67256;51.154;4.164;2023-01-26T17:58:32;16.60;45.80
76293;DHT22;67256;51.154;4.164;2023-01-26T18:00:58;16.60;45.70
76293;DHT22;67256;51.154;4.164;2023-01-26T18:03:24;16.70;45.70
76293;DHT22;67256;51.154;4.164;2023-01-26T18:05:53;16.70;45.50
76293;DHT22;67256;51.154;4.164;2023-01-26T18:08:19;16.70;45.60
76293;DHT22;67256;51.154;4.164;2023-01-26T18:10:46;16.70;45.30
76293;DHT22;67256;51.154;4.164;2023-01-26T18:13:12;16.70;45.40
76293;DHT22;67256;51.154;4.164;2023-01-26T18:15:38;16.70;45.20
76293;DHT22;67256;51.154;4.164;2023-01-26T18:18:04;16.70;44.90
76293;DHT22;67256;51.154;4.164;2023-01-26T18:20:31;16.70;45.00
76293;DHT22;67256;51.154;4.164;2023-01-26T18:22:57;16.70;45.00
76293;DHT22;67256;51.154;4.164;2023-01-26T18:25:24;16.70;45.00
76293;DHT22;67256;51.154;4.164;2023-01-26T18:27:50;16.70;44.80